Time;durP1;ratioP1;P1;durP2;ratioP2;P2;SDS_P1;SDS_P2;PMS_P1;PMS_P2;Temp;Humidity;BMP_temperature;BMP_pressure;BME280_temperature;BME280_humidity;BME280_pressure;Samples;Min_cycle;Max_cycle;Signal;HPM_P1;HPM_P2
2022/11/12 00:02:07;;;;;;;;;26.75;22.25;;;;;12.64;73.81;102531.22;4975182;28;45496;-76
2022/11/12 00:04:32;;;;;;;;;23.50;22.00;;;;;12.68;73.90;102543.66;4974719;28;45493;-73
2022/11/12 00:06:58;;;;;;;;;23.00;21.75;;;;;12.61;73.82;102536.66;4958788;28;45307;-74
2022/11/12 00:09:23;;;;;;;;;24.00;22.25;;;;;12.64;73.63;102550.03;4975251;28;45540;-73
2022/11/12 00:11:49;;;;;;;;;26.25;26.00;;;;;12.59;74.04;102537.66;4972580;28;46163;-74
2022/11/12 00:14:14;;;;;;;;;23.00;23.00;;;;;12.62;74.08;102541.13;4975399;28;45547;-73
2022/11/12 00:16:39;;;;;;;;;20.00;20.00;;;;;12.56;73.92;102529.63;4976985;28;45617;-74
2022/11/12 00:19:05;;;;;;;;;24.75;20.75;;;;;12.56;74.15;102535.91;4957908;28;47010;-74
2022/11/12 00:21:30;;;;;;;;;21.75;21.00;;;;;12.61;74.02;102551.91;4976471;28;46294;-74
2022/11/12 00:23:55;;;;;;;;;20.75;19.75;;;;;12.59;73.94;102551.09;4974527;28;45493;-74
2022/11/12 00:26:21;;;;;;;;;18.75;18.75;;;;;12.60;74.25;102555.53;4975528;28;45483;-74
2022/11/12 00:28:46;;;;;;;;;20.00;20.00;;;;;12.60;74.29;102547.47;4975877;28;45509;-73
2022/11/12 05:32:31;;;;;;;;;17.00;17.00;;;;;11.48;77.11;102475.75;4975307;28;45537;-72
2022/11/12 05:34:56;;;;;;;;;15.75;14.00;;;;;11.53;76.37;102485.47;4974420;28;45526;-74
2022/11/12 05:37:22;;;;;;;;;17.25;13.50;;;;;11.45;76.81;102467.75;4974708;28;46591;-74
2022/11/12 05:39:47;;;;;;;;;14.25;14.25;;;;;11.53;76.77;102481.91;4974489;28;45160;-74
2022/11/12 05:42:12;;;;;;;;;17.50;14.50;;;;;11.34;76.39;102444.72;4974709;28;45311;-74
2022/11/12 05:44:38;;;;;;;;;18.75;18.75;;;;;11.33;76.96;102451.00;4974560;28;45568;-73
2022/11/12 05:47:03;;;;;;;;;16.50;16.50;;;;;11.49;76.78;102470.31;4974397;28;46206;-74
2022/11/12 05:49:29;;;;;;;;;16.50;16.50;;;;;11.54;76.76;102468.44;4974413;28;45248;-73
2022/11/12 05:51:54;;;;;;;;;19.00;17.75;;;;;11.57;76.70;102476.41;4974756;28;45431;-74
2022/11/12 05:54:19;;;;;;;;;16.25;16.25;;;;;11.59;76.68;102485.31;4974007;28;45595;-73
2022/11/12 05:56:45;;;;;;;;;18.00;15.25;;;;;11.60;76.46;102481.72;4973448;28;46046;-74
2022/11/12 05:59:12;;;;;;;;;18.00;16.75;;;;;11.63;76.08;102491.53;4976781;28;45385;-72
2022/11/12 06:01:42;;;;;;;;;16.50;13.75;;;;;11.64;75.90;102490.63;4981720;28;45459;-74
2022/11/12 06:04:13;;;;;;;;;17.50;14.75;;;;;11.65;75.94;102493.25;4981640;28;45303;-74
2022/11/12 06:06:40;;;;;;;;;16.50;16.50;;;;;11.57;75.56;102483.63;4979441;28;45953;-74
2022/11/12 06:09:06;;;;;;;;;12.50;10.25;;;;;11.61;75.78;102488.88;4978355;28;45322;-73
2022/11/12 06:11:32;;;;;;;;;14.25;12.25;;;;;11.61;75.85;102488.00;4979206;28;45540;-74
2022/11/12 06:13:57;;;;;;;;;16.25;15.75;;;;;11.60;75.85;102494.28;4978228;28;45426;-73
2022/11/12 06:16:23;;;;;;;;;12.50;12.50;;;;;11.59;75.39;102484.44;4977726;28;45921;-73
2022/11/12 06:18:48;;;;;;;;;15.50;15.50;;;;;11.62;75.38;102485.28;4977934;28;45430;-75
2022/11/12 06:21:20;;;;;;;;;12.75;12.75;;;;;11.50;75.49;102468.53;4977145;28;45526;-71
2022/11/12 06:23:47;;;;;;;;;15.50;13.00;;;;;11.58;75.22;102485.34;4977743;28;45545;-72
2022/11/12 06:26:12;;;;;;;;;15.00;15.00;;;;;11.50;75.38;102472.09;4976408;28;45556;-72
2022/11/12 06:28:38;;;;;;;;;13.75;13.75;;;;;11.56;75.47;102485.41;4974464;28;45346;-73
2022/11/12 06:31:04;;;;;;;;;13.00;13.00;;;;;11.62;75.37;102490.66;4977357;28;45232;-73
2022/11/12 06:33:29;;;;;;;;;10.25;10.25;;;;;11.64;75.35;102491.50;4955509;28;45496;-75
2022/11/12 06:36:03;;;;;;;;;12.50;12.50;;;;;11.54;75.19;102487.25;4949908;28;46154;-73
2022/11/12 06:38:29;;;;;;;;;13.50;13.50;;;;;11.57;75.04;102491.69;4952361;28;45338;-74
2022/11/12 06:40:55;;;;;;;;;14.25;13.75;;;;;11.54;75.31;102489.94;4957447;28;45373;-74
2022/11/12 06:43:20;;;;;;;;;14.25;14.00;;;;;11.52;75.27;102489.06;4955254;28;45433;-74
2022/11/12 06:45:46;;;;;;;;;17.25;17.00;;;;;11.58;75.32;102497.00;4944039;28;48234;-72
2022/11/12 06:48:11;;;;;;;;;15.00;15.00;;;;;11.59;75.73;102505.94;4953077;28;45492;-73
2022/11/12 06:50:37;;;;;;;;;18.50;15.75;;;;;11.49;75.70;102491.81;4940823;28;45480;-73
2022/11/12 06:53:02;;;;;;;;;16.25;15.50;;;;;11.49;75.20;102493.63;4952635;28;45539;-73
2022/11/12 06:55:27;;;;;;;;;19.25;15.25;;;;;11.44;75.38;102493.72;4954382;28;46577;-73
2022/11/12 06:57:53;;;;;;;;;15.00;15.00;;;;;11.49;75.63;102510.63;4953233;28;45510;-74
2022/11/12 07:00:18;;;;;;;;;17.25;16.25;;;;;11.48;75.78;102510.69;4952610;28;45546;-73
2022/11/12 07:02:44;;;;;;;;;13.75;13.75;;;;;11.47;75.32;102508.91;4954742;28;45326;-74
2022/11/12 07:05:09;;;;;;;;;17.00;16.00;;;;;11.46;75.52;102501.75;4954914;28;45737;-72
2022/11/12 07:07:35;;;;;;;;;18.50;16.50;;;;;11.49;75.49;102509.72;4943673;28;45456;-74
2022/11/12 07:10:00;;;;;;;;;13.75;13.75;;;;;11.50;75.58;102509.69;4956382;28;45493;-75
2022/11/12 07:12:25;;;;;;;;;18.75;16.50;;;;;11.52;75.60;102510.56;4955229;28;46061;-75
2022/11/12 07:14:51;;;;;;;;;19.75;16.75;;;;;11.41;75.20;102499.16;4955201;28;46821;-74
2022/11/12 07:17:16;;;;;;;;;17.00;16.50;;;;;11.37;75.42;102489.41;4955696;28;46844;-73
2022/11/12 07:19:42;;;;;;;;;18.00;18.00;;;;;11.45;75.28;102508.94;4955991;28;45545;-75
2022/11/12 07:22:07;;;;;;;;;18.25;17.50;;;;;11.29;75.16;102483.31;4956836;28;45733;-74
2022/11/12 07:24:33;;;;;;;;;21.00;18.75;;;;;11.44;75.07;102515.22;4955004;28;45573;-74
2022/11/12 07:26:58;;;;;;;;;24.00;18.75;;;;;11.45;74.72;102522.34;4956095;28;46070;-74
2022/11/12 07:29:23;;;;;;;;;18.25;17.25;;;;;11.40;74.88;102515.31;4958275;28;45334;-74
2022/11/12 07:31:48;;;;;;;;;16.75;14.00;;;;;11.37;74.99;102518.94;4962660;28;45596;-73
2022/11/12 07:34:14;;;;;;;;;17.00;16.25;;;;;11.33;74.83;102519.91;4976021;28;46178;-73
2022/11/12 07:36:39;;;;;;;;;18.00;16.00;;;;;11.21;75.02;102510.34;4975714;28;45318;-74
2022/11/12 07:39:04;;;;;;;;;21.75;18.50;;;;;11.27;75.36;102529.00;4973533;28;45434;-74
2022/11/12 07:41:30;;;;;;;;;20.00;17.25;;;;;11.27;75.55;102533.47;4953961;28;45636;-70
2022/11/12 07:43:55;;;;;;;;;19.50;18.00;;;;;11.24;75.17;102542.47;4972292;28;46039;-72
2022/11/12 07:46:26;;;;;;;;;20.50;17.25;;;;;11.26;75.00;102540.66;4972323;28;45436;-73
2022/11/12 07:48:52;;;;;;;;;19.50;18.50;;;;;11.21;75.28;102526.44;4975219;28;45353;-74
2022/11/12 07:51:26;;;;;;;;;16.00;15.00;;;;;11.23;75.29;102526.38;4976285;28;45577;-74
2022/11/12 07:53:53;;;;;;;;;20.00;19.00;;;;;11.26;74.91;102537.06;4957297;28;47394;-74
2022/11/12 07:56:21;;;;;;;;;18.50;16.75;;;;;11.20;75.10;102538.09;4979608;28;45509;-75
2022/11/12 07:58:49;;;;;;;;;18.00;18.00;;;;;11.11;75.25;102540.06;4961974;28;45628;-74
2022/11/12 08:01:34;;;;;;;;;14.50;14.25;;;;;11.15;75.72;102549.81;4944965;28;45581;-76
2022/11/12 08:04:01;;;;;;;;;20.75;19.25;;;;;11.16;75.67;102548.91;4968163;28;45361;-75
2022/11/12 08:06:28;;;;;;;;;17.25;17.25;;;;;11.17;75.26;102554.25;4971477;28;45504;-74
2022/11/12 08:08:55;;;;;;;;;17.00;17.00;;;;;11.04;75.75;102525.00;4974355;28;45260;-75
2022/11/12 08:11:20;;;;;;;;;21.75;19.00;;;;;11.19;75.33;102560.47;4974785;28;45553;-74
2022/11/12 08:13:45;;;;;;;;;24.50;21.00;;;;;11.09;75.30;102533.84;4975966;28;45487;-74
2022/11/12 08:16:11;;;;;;;;;17.25;15.25;;;;;11.21;75.12;102565.81;4975857;28;45623;-75
2022/11/12 08:18:37;;;;;;;;;18.75;18.25;;;;;11.19;75.28;102556.91;4963857;28;45307;-73
2022/11/12 08:21:05;;;;;;;;;18.25;17.75;;;;;11.23;75.16;102563.97;4955470;28;45444;-73
2022/11/12 08:23:30;;;;;;;;;17.25;16.25;;;;;11.23;75.46;102554.13;4956375;28;45394;-74
2022/11/12 08:25:59;;;;;;;;;20.50;19.00;;;;;11.23;75.23;102561.28;4956064;28;45369;-74
2022/11/12 08:28:27;;;;;;;;;18.75;17.25;;;;;11.23;75.61;102563.97;4957058;28;45265;-76
2022/11/12 08:30:53;;;;;;;;;22.75;20.00;;;;;11.23;75.29;102569.34;4956186;28;45364;-73
2022/11/12 08:33:18;;;;;;;;;19.00;17.75;;;;;11.08;75.40;102537.44;4972159;28;45662;-76
2022/11/12 08:35:43;;;;;;;;;20.25;18.50;;;;;11.22;75.55;102572.97;4975486;28;45420;-75
2022/11/12 08:38:09;;;;;;;;;19.25;18.75;;;;;11.26;75.35;102580.91;4976008;28;45361;-76
2022/11/12 08:40:36;;;;;;;;;19.25;18.75;;;;;11.28;75.09;102571.03;4957977;28;46106;-75
2022/11/12 08:43:04;;;;;;;;;21.25;19.00;;;;;11.25;75.25;102556.78;4975616;28;46214;-78
2022/11/12 08:45:35;;;;;;;;;17.00;17.00;;;;;11.34;75.12;102576.28;4975517;28;45346;-74
2022/11/12 08:48:03;;;;;;;;;20.75;18.75;;;;;11.36;74.95;102579.81;4975347;28;45397;-74
2022/11/12 08:50:29;;;;;;;;;23.75;21.75;;;;;11.42;75.17;102583.28;4962820;28;45162;-73
2022/11/12 08:53:03;;;;;;;;;25.75;20.50;;;;;11.41;74.87;102577.03;4968957;28;46226;-73
2022/11/12 08:55:30;;;;;;;;;19.50;19.50;;;;;11.49;74.96;102580.44;4953558;28;45511;-75
2022/11/12 08:57:58;;;;;;;;;21.25;19.25;;;;;11.45;74.84;102556.38;4966121;28;45501;-75
2022/11/12 09:00:23;;;;;;;;;26.00;24.50;;;;;11.55;74.84;102560.66;4972591;28;45448;-73
2022/11/12 09:02:48;;;;;;;;;24.00;21.25;;;;;11.60;74.46;102566.81;4975157;28;46146;-77
2022/11/12 09:05:14;;;;;;;;;19.00;19.00;;;;;11.62;74.42;102563.19;4974961;28;45360;-72
2022/11/12 09:07:39;;;;;;;;;20.00;19.75;;;;;11.41;74.17;102523.31;4957681;28;45392;-73
2022/11/12 09:10:05;;;;;;;;;22.00;21.00;;;;;11.70;74.50;102569.28;4974837;28;45529;-74
2022/11/12 09:12:30;;;;;;;;;19.50;19.50;;;;;11.75;74.44;102564.69;4974902;28;45514;-74
2022/11/12 09:14:56;;;;;;;;;21.50;17.75;;;;;11.83;74.30;102561.84;4974891;28;45377;-75
2022/11/12 09:17:21;;;;;;;;;20.00;18.75;;;;;11.86;73.45;102561.78;4974935;28;45507;-75
2022/11/12 09:19:47;;;;;;;;;21.75;19.50;;;;;11.93;73.70;102567.91;4969635;28;46221;-79
2022/11/12 09:22:12;;;;;;;;;20.75;18.75;;;;;11.84;73.59;102547.50;4956257;28;45557;-76
2022/11/12 09:24:38;;;;;;;;;17.00;15.00;;;;;11.80;73.91;102532.38;4976822;28;45423;-80
2022/11/12 09:27:03;;;;;;;;;22.50;19.50;;;;;12.04;73.98;102564.06;4974777;28;45358;-74
2022/11/12 09:29:28;;;;;;;;;18.75;16.00;;;;;12.11;73.91;102559.41;4975255;28;45477;-77
2022/11/12 09:31:54;;;;;;;;;22.50;20.75;;;;;12.15;73.43;102555.75;4974392;28;45977;-77
2022/11/12 09:34:19;;;;;;;;;21.75;21.75;;;;;12.11;73.43;102528.03;4974239;28;45274;-75
2022/11/12 09:36:44;;;;;;;;;20.25;17.50;;;;;12.33;73.08;102555.31;4974909;28;45285;-75
2022/11/12 09:39:10;;;;;;;;;20.75;20.25;;;;;12.22;73.22;102511.66;4975129;28;45454;-77
2022/11/12 09:41:40;;;;;;;;;21.00;18.75;;;;;12.43;72.50;102540.69;4958877;28;45500;-75
2022/11/12 09:44:10;;;;;;;;;20.00;17.75;;;;;12.47;72.83;102541.53;4975008;28;45357;-75
2022/11/12 09:46:51;;;;;;;;;21.75;21.75;;;;;12.45;72.71;102528.09;4975297;28;45520;-75
2022/11/12 09:49:24;;;;;;;;;20.25;18.00;;;;;12.58;72.23;102541.25;4963869;28;46034;-76
2022/11/12 09:51:56;;;;;;;;;22.75;22.25;;;;;12.71;72.24;102556.16;4962335;28;46924;-74
2022/11/12 09:54:25;;;;;;;;;19.25;19.25;;;;;12.83;72.14;102566.59;4952784;28;45761;-78
2022/11/12 09:56:52;;;;;;;;;24.00;20.25;;;;;12.84;71.55;102560.31;4958560;28;45473;-77
2022/11/12 09:59:19;;;;;;;;;26.00;22.50;;;;;12.95;71.59;102574.34;4960414;28;45402;-75
2022/11/12 10:02:11;;;;;;;;;20.75;20.75;;;;;13.02;71.12;102565.16;4980292;28;45432;-73
2022/11/12 10:05:01;;;;;;;;;23.25;19.00;;;;;13.16;71.00;102572.94;4956070;28;45471;-75
2022/11/12 10:07:42;;;;;;;;;25.25;22.00;;;;;13.17;70.30;102572.88;4975782;28;45420;-78
2022/11/12 10:10:18;;;;;;;;;24.00;21.75;;;;;13.17;70.54;102564.81;4963259;28;45405;-75
2022/11/12 10:13:02;;;;;;;;;22.00;20.75;;;;;13.30;70.19;102576.09;4975844;28;46391;-75
2022/11/12 10:18:46;;;;;;;;;25.00;23.50;;;;;13.44;70.14;102575.75;4955664;28;45329;-75
2022/11/12 10:21:27;;;;;;;;;19.00;19.00;;;;;13.48;69.53;102580.09;4954859;28;45363;-75
2022/11/12 10:23:53;;;;;;;;;28.75;24.50;;;;;13.44;69.61;102557.72;4954606;28;45464;-75
2022/11/12 10:26:21;;;;;;;;;25.75;22.00;;;;;13.49;69.74;102563.88;4954707;28;45415;-76
2022/11/12 10:28:56;;;;;;;;;25.75;23.75;;;;;13.54;69.68;102571.81;4955097;28;45430;-76
2022/11/12 10:31:22;;;;;;;;;27.50;24.00;;;;;13.45;69.32;102550.53;4956611;28;45423;-75
2022/11/12 10:33:48;;;;;;;;;29.00;29.00;;;;;13.50;69.52;102554.88;4974645;28;45942;-75
2022/11/12 10:36:35;;;;;;;;;27.50;24.50;;;;;13.58;69.40;102550.16;4956871;28;45413;-74
2022/11/12 10:39:00;;;;;;;;;25.75;25.75;;;;;13.69;69.32;102557.03;4974199;28;45492;-76
2022/11/12 10:41:32;;;;;;;;;24.25;24.25;;;;;13.68;69.40;102548.06;4974047;28;45500;-75
2022/11/12 10:44:03;;;;;;;;;23.50;23.50;;;;;13.60;68.85;102507.00;4974051;28;45523;-75
2022/11/12 10:46:32;;;;;;;;;31.25;28.00;;;;;13.88;69.27;102544.75;4976964;28;45318;-79
2022/11/12 10:49:04;;;;;;;;;24.75;23.00;;;;;14.00;68.67;102553.34;4957605;28;45370;-77
2022/11/12 10:51:33;;;;;;;;;33.25;31.50;;;;;14.32;67.94;102546.91;4958416;28;45316;-74
2022/11/12 10:54:20;;;;;;;;;24.25;24.25;;;;;14.73;65.34;102532.03;4966965;28;45540;-77
2022/11/12 10:56:47;;;;;;;;;27.75;23.75;;;;;15.48;64.41;102515.81;4958501;28;45297;-75
2022/11/12 10:59:19;;;;;;;;;26.25;22.50;;;;;16.30;62.41;102515.25;4966789;28;45295;-79
2022/11/12 11:01:45;;;;;;;;;23.50;22.25;;;;;17.08;60.26;102504.66;4961361;28;45365;-81
2022/11/12 11:04:21;;;;;;;;;24.75;23.25;;;;;17.74;58.10;102510.66;4975340;28;46331;-75
2022/11/12 11:06:46;;;;;;;;;23.50;23.50;;;;;18.50;55.79;102515.88;4965720;28;45321;-74
2022/11/12 11:09:12;;;;;;;;;29.50;25.75;;;;;19.20;54.01;102498.63;4977390;28;45211;-76
2022/11/12 11:11:47;;;;;;;;;25.25;23.00;;;;;19.87;53.30;102481.31;4977631;28;45366;-74
2022/11/12 11:14:34;;;;;;;;;23.75;22.75;;;;;20.64;51.58;102488.59;4977210;28;45443;-76
2022/11/12 11:17:07;;;;;;;;;22.50;22.50;;;;;21.20;50.07;102487.84;4959953;28;45802;-77
2022/11/12 11:19:41;;;;;;;;;23.25;23.25;;;;;21.81;48.29;102494.84;4959839;28;45263;-73
2022/11/12 11:22:37;;;;;;;;;24.00;21.75;;;;;22.26;45.87;102494.56;4977134;28;45353;-75
2022/11/12 11:25:26;;;;;;;;;21.25;21.25;;;;;22.59;45.40;102460.44;4951368;28;47129;-74
2022/11/12 11:27:55;;;;;;;;;24.50;23.25;;;;;22.97;45.08;102471.44;4955271;28;45407;-78
2022/11/12 11:30:21;;;;;;;;;22.50;22.50;;;;;23.28;43.37;102464.69;4977402;28;45395;-75
2022/11/12 11:33:17;;;;;;;;;24.00;24.00;;;;;23.49;43.07;102459.50;4976027;28;45373;-75
2022/11/12 11:35:58;;;;;;;;;25.25;22.50;;;;;23.56;43.05;102460.84;4976342;28;45516;-77
2022/11/12 11:38:37;;;;;;;;;23.50;22.25;;;;;23.48;42.90;102449.56;4976491;28;45318;-75
2022/11/12 11:41:19;;;;;;;;;24.25;21.75;;;;;23.36;42.51;102440.34;4976405;28;45439;-74
2022/11/12 11:43:51;;;;;;;;;25.25;23.00;;;;;23.51;42.98;102446.59;4971974;28;45409;-75
2022/11/12 11:46:38;;;;;;;;;25.25;25.25;;;;;23.56;41.94;102425.25;4971906;28;48739;-78
2022/11/12 11:49:27;;;;;;;;;23.50;23.50;;;;;23.87;42.18;102440.25;4965781;28;45389;-80
2022/11/12 11:52:05;;;;;;;;;26.75;25.75;;;;;23.92;42.19;102443.50;4959931;28;45360;-76
2022/11/12 11:54:54;;;;;;;;;24.50;24.50;;;;;23.59;42.19;102453.25;4976590;28;46271;-77
2022/11/12 11:57:39;;;;;;;;;26.25;24.50;;;;;22.77;43.36;102420.03;4976676;28;46536;-75
2022/11/12 12:00:16;;;;;;;;;24.00;24.00;;;;;22.36;44.73;102442.03;4978064;28;45535;-74
2022/11/12 12:03:05;;;;;;;;;25.00;24.00;;;;;21.78;45.75;102445.88;4979835;28;45579;-80
2022/11/12 12:06:07;;;;;;;;;25.00;25.00;;;;;21.19;47.21;102441.56;4976825;28;45737;-78
2022/11/12 12:08:33;;;;;;;;;30.25;29.00;;;;;20.81;47.97;102436.66;4952954;28;46469;-77
2022/11/12 12:11:22;;;;;;;;;27.25;25.50;;;;;20.43;49.35;102435.38;4976424;28;45651;-78
2022/11/12 12:14:14;;;;;;;;;28.00;28.00;;;;;20.06;49.86;102434.84;4976423;28;45408;-80
2022/11/12 12:17:33;;;;;;;;;26.50;26.50;;;;;19.61;50.60;102424.75;4976904;28;45316;-76
2022/11/12 12:20:07;;;;;;;;;26.50;25.25;;;;;19.37;51.53;102423.41;4878085;29;48638;-77
2022/11/12 12:22:58;;;;;;;;;31.00;28.50;;;;;19.08;52.08;102422.28;4955012;28;45426;-76
2022/11/12 12:25:31;;;;;;;;;32.25;30.00;;;;;18.89;52.81;102433.28;4974353;28;45553;-76
2022/11/12 12:28:01;;;;;;;;;32.25;29.75;;;;;18.71;53.50;102417.97;4956269;28;45581;-77
2022/11/12 12:30:30;;;;;;;;;32.75;29.75;;;;;18.53;53.86;102417.06;4938847;28;46303;-77
2022/11/12 12:33:15;;;;;;;;;31.25;29.50;;;;;18.46;53.86;102424.63;4970948;28;45362;-76
2022/11/12 12:36:08;;;;;;;;;34.75;32.00;;;;;18.23;54.54;102405.97;4975703;28;45662;-79
2022/11/12 12:38:51;;;;;;;;;33.25;30.25;;;;;18.16;54.86;102420.81;4975465;28;45580;-80
2022/11/12 12:41:33;;;;;;;;;33.75;32.00;;;;;17.99;55.48;102410.81;4975942;28;45739;-76
2022/11/12 12:44:05;;;;;;;;;34.50;29.25;;;;;17.82;55.89;102393.59;4973420;28;45579;-80
2022/11/12 12:46:36;;;;;;;;;34.25;28.75;;;;;17.83;56.40;102412.53;4984097;28;45455;-77
2022/11/12 12:49:05;;;;;;;;;34.00;30.25;;;;;17.75;56.39;102407.50;4981143;28;45444;-76
2022/11/12 12:51:32;;;;;;;;;34.50;30.25;;;;;17.68;56.92;102403.31;4977950;28;45531;-76
2022/11/12 12:53:58;;;;;;;;;31.50;26.75;;;;;17.56;57.64;102392.16;4974678;28;45376;-76
2022/11/12 12:56:29;;;;;;;;;28.75;27.00;;;;;17.60;57.74;102408.22;4975495;28;45441;-75
2022/11/12 12:58:54;;;;;;;;;32.75;29.50;;;;;17.54;57.59;102397.63;4957777;28;46414;-75
2022/11/12 13:01:20;;;;;;;;;32.50;30.75;;;;;17.52;57.63;102402.28;4975477;28;46189;-78
2022/11/12 13:04:07;;;;;;;;;27.75;26.50;;;;;17.50;58.12;102389.75;4958341;28;45744;-78
2022/11/12 13:06:33;;;;;;;;;36.50;30.00;;;;;17.49;58.55;102399.72;4958300;28;45464;-74
2022/11/12 13:09:00;;;;;;;;;26.50;23.50;;;;;17.43;58.16;102385.56;4975295;28;45348;-75
2022/11/12 13:14:34;;;;;;;;;31.50;28.75;;;;;17.41;59.31;102374.81;4974259;28;45479;-72
2022/11/12 13:17:06;;;;;;;;;32.25;29.75;;;;;17.42;59.12;102373.84;4975490;28;45326;-73
2022/11/12 13:19:45;;;;;;;;;28.50;27.25;;;;;17.25;59.04;102350.28;4974728;28;45563;-74
2022/11/12 13:22:40;;;;;;;;;26.25;26.25;;;;;17.35;58.82;102366.97;4975194;28;45500;-72
2022/11/12 13:25:11;;;;;;;;;27.75;26.50;;;;;17.33;59.46;102371.59;4974894;28;45440;-74
2022/11/12 13:27:42;;;;;;;;;28.75;24.50;;;;;17.27;59.75;102369.16;4957599;28;45517;-74
2022/11/12 13:30:15;;;;;;;;;34.00;31.25;;;;;17.24;59.59;102372.03;4975234;28;46094;-75
2022/11/12 13:32:46;;;;;;;;;26.50;26.50;;;;;17.23;59.72;102363.00;4969842;28;47157;-74
2022/11/12 13:35:29;;;;;;;;;32.00;29.75;;;;;17.21;60.04;102353.19;4971184;28;45279;-74
2022/11/12 13:38:01;;;;;;;;;29.25;26.00;;;;;17.30;59.96;102352.75;4955810;28;45405;-74
2022/11/12 13:40:29;;;;;;;;;32.50;31.75;;;;;17.35;59.98;102359.69;4955538;28;45482;-74
2022/11/12 13:43:05;;;;;;;;;29.75;28.00;;;;;17.38;59.75;102345.13;4955592;28;46560;-74
2022/11/12 13:45:36;;;;;;;;;28.75;27.00;;;;;17.36;60.06;102339.75;4962617;28;45472;-78
2022/11/12 13:48:16;;;;;;;;;33.25;29.75;;;;;17.34;59.87;102329.97;4975109;28;45228;-78
2022/11/12 13:50:47;;;;;;;;;33.50;29.75;;;;;17.52;59.82;102339.91;4975024;28;45347;-76
2022/11/12 13:53:21;;;;;;;;;25.50;24.00;;;;;17.80;59.19;102344.84;4964594;28;45331;-78
2022/11/12 13:55:49;;;;;;;;;26.50;25.50;;;;;18.23;58.48;102340.81;4975045;28;45370;-73
2022/11/12 13:58:27;;;;;;;;;27.00;27.00;;;;;18.82;57.47;102337.63;4957228;28;45467;-73
2022/11/12 14:00:56;;;;;;;;;26.25;25.75;;;;;19.58;55.39;102330.56;4974487;28;45333;-72
2022/11/12 14:03:23;;;;;;;;;28.00;26.00;;;;;20.12;53.55;102311.94;4956563;28;46410;-70
2022/11/12 14:05:49;;;;;;;;;24.00;24.00;;;;;20.84;52.39;102337.47;4974766;28;45413;-70
2022/11/12 14:08:33;;;;;;;;;28.25;25.75;;;;;21.20;51.22;102331.47;4974688;28;45424;-71
2022/11/12 14:10:58;;;;;;;;;33.00;30.00;;;;;21.48;50.01;102324.13;4974815;28;45451;-74
2022/11/12 14:13:39;;;;;;;;;27.00;27.00;;;;;21.70;49.67;102317.22;4974620;28;45423;-73
2022/11/12 14:16:37;;;;;;;;;24.25;23.00;;;;;21.81;49.42;102317.38;4974447;28;45317;-75
2022/11/12 14:19:28;;;;;;;;;28.50;26.75;;;;;21.76;49.46;102316.81;4940446;28;45350;-75
2022/11/12 14:22:13;;;;;;;;;30.00;25.75;;;;;21.71;49.21;102306.19;4977775;28;45237;-73
2022/11/12 14:24:39;;;;;;;;;29.50;27.75;;;;;21.74;49.48;102308.72;4977737;28;45647;-75
2022/11/12 14:27:21;;;;;;;;;25.25;23.75;;;;;21.71;49.10;102308.03;4977576;28;45340;-73
2022/11/12 14:29:46;;;;;;;;;24.00;22.75;;;;;21.74;49.64;102299.66;4978005;28;45334;-75
2022/11/12 14:32:17;;;;;;;;;26.50;24.75;;;;;21.74;49.78;102297.81;4976989;28;46438;-74
2022/11/12 14:34:42;;;;;;;;;27.50;25.50;;;;;21.85;50.12;102299.81;4977500;28;46643;-75
2022/11/12 14:37:36;;;;;;;;;26.25;26.00;;;;;21.84;49.47;102296.19;4977755;28;45500;-74
2022/11/12 14:40:01;;;;;;;;;29.00;27.25;;;;;21.84;49.35;102296.19;4977574;28;45322;-72
2022/11/12 14:42:27;;;;;;;;;25.00;25.00;;;;;21.88;49.31;102289.53;4977415;28;45246;-71
2022/11/12 14:44:53;;;;;;;;;25.75;25.75;;;;;21.84;49.03;102287.13;4977493;28;45389;-70
2022/11/12 14:47:19;;;;;;;;;26.75;26.00;;;;;21.86;49.56;102287.91;4977052;28;45259;-71
2022/11/12 14:49:47;;;;;;;;;28.50;25.00;;;;;21.84;48.51;102270.75;4976709;28;45297;-71
2022/11/12 14:52:26;;;;;;;;;23.50;23.00;;;;;22.01;48.89;102284.16;4977217;28;45386;-72
2022/11/12 14:55:08;;;;;;;;;28.00;26.75;;;;;21.95;48.70;102287.25;4956405;28;47422;-73
2022/11/12 14:57:34;;;;;;;;;23.75;22.50;;;;;21.82;49.10;102278.16;4977606;28;45321;-71
2022/11/12 15:00:18;;;;;;;;;28.50;27.50;;;;;21.49;49.27;102259.50;4956292;28;45437;-71
2022/11/12 15:02:43;;;;;;;;;22.50;21.75;;;;;21.36;50.30;102261.28;4967809;28;45481;-73
2022/11/12 15:05:20;;;;;;;;;25.75;24.50;;;;;21.24;50.68;102282.09;4959310;28;46089;-71
2022/11/12 15:08:04;;;;;;;;;26.50;22.25;;;;;21.11;51.33;102281.09;4977111;28;45476;-72
2022/11/12 15:10:33;;;;;;;;;25.50;22.50;;;;;20.91;51.37;102276.09;4977147;28;45270;-71
2022/11/12 15:13:08;;;;;;;;;28.50;26.75;;;;;20.66;52.29;102274.09;4977209;28;45326;-73
2022/11/12 15:15:56;;;;;;;;;22.00;22.00;;;;;20.38;52.44;102280.41;4974752;28;45302;-73
2022/11/12 15:18:29;;;;;;;;;23.25;23.25;;;;;20.03;53.90;102269.81;4961261;28;45503;-74
2022/11/12 15:21:22;;;;;;;;;28.50;26.75;;;;;19.82;54.24;102272.97;4973830;28;45602;-74
2022/11/12 15:24:03;;;;;;;;;26.00;23.00;;;;;19.56;54.93;102269.09;4970249;28;45577;-72
2022/11/12 15:26:41;;;;;;;;;27.50;26.75;;;;;19.34;55.80;102274.84;4976483;28;46304;-73
2022/11/12 15:29:09;;;;;;;;;28.75;26.25;;;;;19.15;56.03;102282.31;4971882;28;45554;-71
2022/11/12 15:31:50;;;;;;;;;31.75;25.75;;;;;18.98;56.46;102280.56;4975585;28;45645;-72
2022/11/12 15:34:30;;;;;;;;;27.25;25.50;;;;;18.83;57.66;102281.44;4973554;28;45570;-73
2022/11/12 15:37:05;;;;;;;;;24.50;24.25;;;;;18.61;57.89;102270.91;4959029;28;45263;-73
2022/11/12 15:39:33;;;;;;;;;22.75;22.75;;;;;18.47;58.45;102263.44;4964200;28;45598;-72
2022/11/12 15:42:05;;;;;;;;;29.75;26.25;;;;;18.43;58.70;102277.28;4973209;28;45508;-73
2022/11/12 15:44:34;;;;;;;;;25.50;24.75;;;;;18.30;59.33;102277.06;4962678;28;45449;-72
2022/11/12 15:47:00;;;;;;;;;28.25;24.25;;;;;18.20;59.79;102269.53;4972666;28;45773;-72
2022/11/12 15:49:26;;;;;;;;;27.00;26.00;;;;;18.08;60.13;102252.91;4967773;28;46076;-70
2022/11/12 15:51:51;;;;;;;;;28.50;26.00;;;;;17.96;60.09;102253.56;4971186;28;45706;-71
2022/11/12 15:54:17;;;;;;;;;27.00;27.00;;;;;17.93;60.18;102256.44;4968753;28;45762;-73
2022/11/12 15:56:42;;;;;;;;;28.50;25.50;;;;;17.88;60.65;102261.22;4951421;28;47732;-71
2022/11/12 15:59:14;;;;;;;;;23.00;22.00;;;;;17.80;60.82;102257.16;4970619;28;45498;-73
2022/11/12 16:01:39;;;;;;;;;25.00;24.00;;;;;17.74;61.18;102251.09;4972326;28;45782;-71
2022/11/12 16:04:05;;;;;;;;;21.50;20.00;;;;;17.60;61.46;102239.19;4972720;28;45614;-71
2022/11/12 16:06:30;;;;;;;;;25.25;23.25;;;;;17.60;62.16;102245.50;4973432;28;45485;-69
2022/11/12 16:08:56;;;;;;;;;24.00;24.00;;;;;17.53;62.63;102240.44;4970553;28;45902;-70
2022/11/12 16:11:36;;;;;;;;;20.25;19.25;;;;;17.30;62.92;102222.63;4957972;28;45539;-73
2022/11/12 16:14:10;;;;;;;;;24.75;21.75;;;;;17.33;63.19;102245.06;4972461;28;45323;-72
2022/11/12 16:16:38;;;;;;;;;23.25;22.75;;;;;17.17;62.75;102224.22;4973022;28;45768;-72
2022/11/12 16:19:15;;;;;;;;;26.50;23.00;;;;;17.26;63.28;102249.03;4974350;28;45472;-72
2022/11/12 16:21:40;;;;;;;;;29.00;26.50;;;;;17.07;63.42;102212.94;4971194;28;45258;-70
2022/11/12 16:24:06;;;;;;;;;28.50;25.25;;;;;17.21;63.63;102250.19;4972630;28;45468;-71
2022/11/12 16:26:33;;;;;;;;;25.75;25.50;;;;;17.15;64.08;102250.50;4954819;28;46116;-72
2022/11/12 16:28:59;;;;;;;;;27.00;24.00;;;;;17.09;63.94;102242.69;4973680;28;45476;-70
2022/11/12 16:31:24;;;;;;;;;23.00;23.00;;;;;17.08;63.84;102249.06;4974387;28;45364;-71
2022/11/12 16:33:54;;;;;;;;;31.50;28.50;;;;;17.07;63.93;102256.31;4957405;28;45504;-72
2022/11/12 16:36:20;;;;;;;;;25.00;21.00;;;;;17.00;64.55;102252.16;4975180;28;46252;-71